createdAt,value
2019-04-20T00:02:27.477Z,8.53
2019-04-20T00:07:29.168Z,8.07
2019-04-20T00:12:34.447Z,8.93
2019-04-20T00:17:19.942Z,8.13
2019-04-20T00:22:33.118Z,8.93
2019-04-20T00:27:47.150Z,8.80
2019-04-20T00:32:39.958Z,9.80
2019-04-20T00:37:19.151Z,10.80
2019-04-20T00:42:17.676Z,10.67
2019-04-20T00:47:29.155Z,9.10
2019-04-20T00:52:27.565Z,10.60
2019-04-20T00:57:20.299Z,9.90
2019-04-20T01:02:21.208Z,10.43
2019-04-20T01:07:24.396Z,9.90
2019-04-20T01:12:16.420Z,9.97
2019-04-20T01:17:12.154Z,8.83
2019-04-20T01:22:10.740Z,10.07
2019-04-20T01:27:06.541Z,9.50
2019-04-20T01:32:12.804Z,9.57
2019-04-20T01:37:14.427Z,9.70
2019-04-20T01:41:58.159Z,9.87
2019-04-20T01:46:58.734Z,10.10
2019-04-20T01:52:03.811Z,9.53
2019-04-20T01:57:04.764Z,9.73
2019-04-20T02:02:04.040Z,10.63
2019-04-20T02:06:59.909Z,11.30
2019-04-20T02:11:54.114Z,10.87
2019-04-20T02:16:58.439Z,11.40
2019-04-20T02:22:03.844Z,10.80
2019-04-20T02:26:47.250Z,9.80
2019-04-20T02:42:26.541Z,10.77
2019-04-20T02:47:24.960Z,10.47
2019-04-20T02:57:17.857Z,10.87
2019-04-20T03:01:59.020Z,9.27
2019-04-20T03:06:54.946Z,10.70
2019-04-20T03:12:05.025Z,9.57
2019-04-20T03:16:51.348Z,11.27
2019-04-20T03:21:52.872Z,9.87
2019-04-20T03:26:47.989Z,10.00
2019-04-20T03:32:14.645Z,10.60
2019-04-20T03:36:53.510Z,10.63
2019-04-20T03:41:32.989Z,11.00
2019-04-20T03:46:31.028Z,11.83
2019-04-20T03:51:46.757Z,10.80
2019-04-20T03:57:06.608Z,10.53
2019-04-20T04:02:22.237Z,10.80
2019-04-20T04:06:50.963Z,11.33
2019-04-20T04:11:57.620Z,11.80
2019-04-20T04:16:45.675Z,11.03
2019-04-20T04:21:54.821Z,11.90
2019-04-20T04:26:51.179Z,11.03
2019-04-20T04:32:03.656Z,10.77
2019-04-20T04:36:53.966Z,10.77
2019-04-20T04:41:51.203Z,10.10
2019-04-20T04:46:26.897Z,9.37
2019-04-20T04:51:29.398Z,10.33
2019-04-20T04:56:23.962Z,11.90
2019-04-20T05:01:25.289Z,9.97
2019-04-20T05:06:30.008Z,10.47
2019-04-20T05:11:17.315Z,10.83
2019-04-20T05:16:37.448Z,11.50
2019-04-20T05:21:38.967Z,9.87
2019-04-20T05:31:36.370Z,10.03
2019-04-20T05:36:45.182Z,9.80
2019-04-20T05:41:42.916Z,10.47
2019-04-20T05:46:36.224Z,10.93
2019-04-20T05:51:43.200Z,9.90
2019-04-20T05:56:44.507Z,11.27
2019-04-20T06:01:38.025Z,11.13
2019-04-20T06:06:37.715Z,12.03
2019-04-20T06:11:32.010Z,11.10
2019-04-20T06:16:33.530Z,12.17
2019-04-20T06:21:51.909Z,11.97
2019-04-20T06:26:55.110Z,9.97
2019-04-20T06:31:59.339Z,10.83
2019-04-20T06:36:57.417Z,10.47
2019-04-20T06:51:59.306Z,9.53
2019-04-20T06:56:55.747Z,10.57
2019-04-20T07:02:02.985Z,10.10
2019-04-20T07:07:06.448Z,10.30
2019-04-20T07:11:56.992Z,9.83
2019-04-20T07:17:10.668Z,9.57
2019-04-20T07:22:23.103Z,10.37
2019-04-20T07:27:06.373Z,10.23
2019-04-20T07:31:57.200Z,9.30
2019-04-20T07:37:28.243Z,10.17
2019-04-20T07:42:13.619Z,10.20
2019-04-20T07:51:40.425Z,9.03
2019-04-20T07:56:53.827Z,10.27
2019-04-20T08:06:53.036Z,10.40
2019-04-20T08:12:11.590Z,10.07
2019-04-20T08:17:14.320Z,10.17
2019-04-20T08:21:58.447Z,9.87
2019-04-20T08:26:45.436Z,9.97
2019-04-20T08:31:55.943Z,10.10
2019-04-20T08:36:56.611Z,9.63
2019-04-20T08:41:57.535Z,8.80
2019-04-20T08:47:02.162Z,10.37
2019-04-20T08:51:58.855Z,8.77
2019-04-20T08:56:36.252Z,9.63
2019-04-20T09:01:29.076Z,9.30
2019-04-20T09:06:39.924Z,9.20
2019-04-20T09:11:47.961Z,8.57
2019-04-20T09:16:26.975Z,9.47
2019-04-20T09:21:28.748Z,10.03
2019-04-20T09:26:41.329Z,8.57
2019-04-20T09:31:35.906Z,10.10
2019-04-20T09:36:32.528Z,9.37
2019-04-20T09:41:58.530Z,9.23
2019-04-20T09:46:50.056Z,8.63
2019-04-20T09:51:58.576Z,9.07
2019-04-20T09:57:03.573Z,8.97
2019-04-20T10:01:45.049Z,9.43
2019-04-20T10:06:37.703Z,8.80
2019-04-20T10:11:33.755Z,8.20
2019-04-20T10:16:29.780Z,8.33
2019-04-20T10:21:26.225Z,7.47
2019-04-20T10:26:22.748Z,7.47
2019-04-20T10:31:20.242Z,6.47
2019-04-20T10:36:33.438Z,6.87
2019-04-20T10:41:37.903Z,7.70
2019-04-20T10:46:27.288Z,6.50
2019-04-20T10:51:23.972Z,6.77
2019-04-20T10:56:21.254Z,8.83
2019-04-20T11:01:17.876Z,7.30
2019-04-20T11:06:14.521Z,7.53
2019-04-20T11:11:16.387Z,7.23
2019-04-20T11:16:08.672Z,8.33
2019-04-20T11:21:04.730Z,8.00
2019-04-20T11:26:02.142Z,7.13
2019-04-20T11:30:58.519Z,6.73
2019-04-20T11:35:55.043Z,7.00
2019-04-20T11:41:03.829Z,7.00
2019-04-20T11:45:49.003Z,7.60
2019-04-20T11:50:53.581Z,7.30
2019-04-20T11:55:50.340Z,6.40
2019-04-20T12:00:56.256Z,8.60
2019-04-20T12:05:51.638Z,7.70
2019-04-20T12:10:49.417Z,7.23
2019-04-20T12:15:43.427Z,7.27
2019-04-20T12:20:45.027Z,7.03
2019-04-20T12:25:42.898Z,7.33
2019-04-20T12:30:39.747Z,8.07
2019-04-20T12:35:36.165Z,8.57
2019-04-20T12:40:32.429Z,7.97
2019-04-20T12:45:29.280Z,7.53
2019-04-20T12:50:25.898Z,6.90
2019-04-20T12:55:22.885Z,8.63
2019-04-20T13:00:23.681Z,7.13
2019-04-20T13:05:22.164Z,7.37
2019-04-20T13:10:18.179Z,7.40
2019-04-20T13:15:38.324Z,7.27
2019-04-20T13:20:43.908Z,7.03
2019-04-20T13:25:41.219Z,7.27
2019-04-20T13:30:37.627Z,7.50
2019-04-20T13:35:34.282Z,7.87
2019-04-20T13:40:31.217Z,6.80
2019-04-20T13:45:28.723Z,6.93
2019-04-20T13:50:26.203Z,6.93
2019-04-20T13:55:24.907Z,7.60
2019-04-20T14:00:40.938Z,7.50
2019-04-20T14:05:38.201Z,7.60
2019-04-20T14:10:35.395Z,7.43
2019-04-20T14:15:33.208Z,7.00
2019-04-20T14:20:29.876Z,6.33
2019-04-20T14:25:27.046Z,6.70
2019-04-20T14:30:24.518Z,7.30
2019-04-20T14:35:20.869Z,8.37
2019-04-20T14:40:18.713Z,8.50
2019-04-20T14:45:16.349Z,7.93
2019-04-20T14:50:15.932Z,6.50
2019-04-20T14:55:15.239Z,6.97
2019-04-20T15:00:17.343Z,8.27
2019-04-20T15:05:14.767Z,7.70
2019-04-20T15:10:13.133Z,7.50
2019-04-20T15:15:10.568Z,7.20
2019-04-20T15:20:11.873Z,7.93
2019-04-20T15:25:09.471Z,7.13
2019-04-20T15:30:08.503Z,7.17
2019-04-20T15:35:06.969Z,6.50
2019-04-20T15:40:05.191Z,6.53
2019-04-20T15:45:05.203Z,9.03
2019-04-20T15:50:02.298Z,7.67
2019-04-20T15:55:03.091Z,7.60
2019-04-20T15:59:56.304Z,8.13
2019-04-20T16:04:58.377Z,7.50
2019-04-20T16:09:54.935Z,6.60
2019-04-20T16:14:51.371Z,6.50
2019-04-20T16:19:55.391Z,5.57
2019-04-20T16:24:49.044Z,7.50
2019-04-20T16:29:45.142Z,6.53
2019-04-20T16:34:42.507Z,5.63
2019-04-20T16:39:38.705Z,6.90
2019-04-20T16:44:35.545Z,6.67
2019-04-20T16:49:32.735Z,6.23
2019-04-20T16:54:29.999Z,6.13
2019-04-20T16:59:26.143Z,6.10
2019-04-20T17:04:24.101Z,5.73
2019-04-20T17:09:20.019Z,5.30
2019-04-20T17:14:16.996Z,5.87
2019-04-20T17:19:13.397Z,4.90
2019-04-20T17:24:09.410Z,5.00
2019-04-20T17:29:13.728Z,4.30
2019-04-20T17:34:27.023Z,4.63
2019-04-20T17:39:11.936Z,3.97
2019-04-20T17:44:25.073Z,3.90
2019-04-20T17:49:19.423Z,4.17
2019-04-20T17:54:08.461Z,3.40
2019-04-20T17:59:04.397Z,3.37
2019-04-20T18:04:39.468Z,3.13
2019-04-20T18:09:11.545Z,3.70
2019-04-20T18:14:06.542Z,3.40
2019-04-20T18:19:07.742Z,3.40
2019-04-20T18:23:58.286Z,3.20
2019-04-20T18:29:14.945Z,3.10
2019-04-20T18:33:54.094Z,3.67
2019-04-20T18:38:57.531Z,4.20
2019-04-20T18:43:52.303Z,3.63
2019-04-20T18:49:06.921Z,3.80
2019-04-20T18:53:46.915Z,4.20
2019-04-20T18:58:43.010Z,4.70
2019-04-20T19:03:42.696Z,5.40
2019-04-20T19:08:40.488Z,5.93
2019-04-20T19:13:44.653Z,6.40
2019-04-20T19:19:01.750Z,6.70
2019-04-20T19:23:54.868Z,7.30
2019-04-20T19:28:48.107Z,8.03
2019-04-20T19:34:04.626Z,8.80
2019-04-20T19:38:50.806Z,9.60
2019-04-20T19:43:48.385Z,9.73
2019-04-20T19:48:45.089Z,10.27
2019-04-20T19:53:53.049Z,9.83
2019-04-20T19:58:39.685Z,11.47
2019-04-20T20:03:27.795Z,11.10
2019-04-20T20:08:29.072Z,11.33
2019-04-20T20:13:27.638Z,10.20
2019-04-20T20:18:35.608Z,10.50
2019-04-20T20:23:18.286Z,10.27
2019-04-20T20:28:28.715Z,10.13
2019-04-20T20:33:30.650Z,9.40
2019-04-20T20:38:19.210Z,10.90
2019-04-20T20:43:18.462Z,9.93
2019-04-20T20:48:22.838Z,9.63
2019-04-20T20:53:14.205Z,8.60
2019-04-20T20:58:10.620Z,9.23
2019-04-20T21:03:03.928Z,9.97
2019-04-20T21:07:57.479Z,9.40
2019-04-20T21:12:58.978Z,10.30
2019-04-20T21:18:15.890Z,11.10
2019-04-20T21:23:02.658Z,10.30
2019-04-20T21:27:47.022Z,11.53
2019-04-20T21:32:46.987Z,11.00
2019-04-20T21:37:48.319Z,11.03
2019-04-20T21:42:44.308Z,10.47
2019-04-20T21:47:39.782Z,11.17
2019-04-20T21:52:41.294Z,11.30
2019-04-20T21:57:39.062Z,10.53
2019-04-20T22:02:37.700Z,11.93
2019-04-20T22:07:28.304Z,11.33
2019-04-20T22:12:30.606Z,10.57
2019-04-20T22:17:28.580Z,10.70
2019-04-20T22:22:41.118Z,10.00
2019-04-20T22:27:22.427Z,10.80
2019-04-20T22:32:17.361Z,11.20
2019-04-20T22:37:20.811Z,11.20
2019-04-20T22:42:14.313Z,11.50
2019-04-20T22:47:14.028Z,11.50
2019-04-20T22:52:27.821Z,11.60
2019-04-20T22:57:22.260Z,12.47
2019-04-20T23:02:05.627Z,12.03
2019-04-20T23:07:02.982Z,12.70
2019-04-20T23:12:04.919Z,11.60
2019-04-20T23:16:57.584Z,12.00
2019-04-20T23:21:59.646Z,12.70
2019-04-20T23:26:53.063Z,11.30
2019-04-20T23:31:54.968Z,12.10
2019-04-20T23:36:50.335Z,11.83
2019-04-20T23:41:53.754Z,11.27
2019-04-20T23:46:45.341Z,12.17
2019-04-20T23:52:03.626Z,12.73
2019-04-20T23:56:39.778Z,12.13
